Terminal Aerodrome Forecast
Issued by NWS

Home | Current Version | Previous Version | Text Only | Print | Product List | Glossary Off
Versions: 1 2 3 4 5 6 7 8 9 10 11 12 13 14 15 16 17

000
FTUS43 KABR 262052 AAA
TAFMBG
TAF AMD
KMBG 262052Z 2621/2718 18012G19KT P6SM VCTS FEW050 BKN070CB
     FM262300 15006KT P6SM SCT200
     FM270600 00000KT P6SM VCSH SCT100 BKN200
     FM271000 34008KT P6SM SCT250
     FM271700 36008KT P6SM VCSH SCT100 BKN200=

USA.gov is the U.S. government's official web portal to all federal, state and local government web resources and services.